createdAt,value
2019-01-28T00:00:21.318Z,1.50
2019-01-28T00:02:49.741Z,1.50
2019-01-28T00:05:19.640Z,1.50
2019-01-28T00:07:48.990Z,1.60
2019-01-28T00:10:19.594Z,1.90
2019-01-28T00:12:49.528Z,1.63
2019-01-28T00:15:20.049Z,1.60
2019-01-28T00:17:49.992Z,2.00
2019-01-28T00:20:20.444Z,2.00
2019-01-28T00:22:50.339Z,1.87
2019-01-28T00:25:21.719Z,2.33
2019-01-28T00:27:52.273Z,1.60
2019-01-28T00:30:22.634Z,1.40
2019-01-28T00:32:52.078Z,1.70
2019-01-28T00:35:22.380Z,1.55
2019-01-28T00:37:52.338Z,1.50
2019-01-28T00:40:22.153Z,2.20
2019-01-28T00:42:52.078Z,1.70
2019-01-28T00:45:22.414Z,2.63
2019-01-28T00:47:52.449Z,1.57
2019-01-28T00:50:21.922Z,1.50
2019-01-28T00:52:52.240Z,2.17
2019-01-28T00:55:21.235Z,1.97
2019-01-28T00:57:51.282Z,2.00
2019-01-28T01:00:25.801Z,1.80
2019-01-28T01:02:55.591Z,1.90
2019-01-28T01:05:25.592Z,1.33
2019-01-28T01:07:54.725Z,1.70
2019-01-28T01:10:24.770Z,1.40
2019-01-28T01:12:54.699Z,1.67
2019-01-28T01:15:25.134Z,1.87
2019-01-28T01:17:53.986Z,1.40
2019-01-28T01:20:24.020Z,1.50
2019-01-28T01:22:53.869Z,1.63
2019-01-28T01:25:24.529Z,1.30
2019-01-28T01:27:54.874Z,1.47
2019-01-28T01:30:24.703Z,1.63
2019-01-28T01:32:54.982Z,1.50
2019-01-28T01:35:26.238Z,1.30
2019-01-28T01:37:57.537Z,1.57
2019-01-28T01:43:18.537Z,1.75
2019-01-28T01:45:50.442Z,1.60
2019-01-28T01:48:20.833Z,1.50
2019-01-28T01:50:50.675Z,1.57
2019-01-28T01:53:41.622Z,1.40
2019-01-28T01:56:11.557Z,1.60
2019-01-28T01:58:44.986Z,1.40
2019-01-28T02:01:15.981Z,1.50
2019-01-28T02:03:45.849Z,1.40
2019-01-28T02:06:15.334Z,1.47
2019-01-28T02:08:44.250Z,1.40
2019-01-28T02:11:15.995Z,1.13
2019-01-28T02:13:45.911Z,2.13
2019-01-28T02:16:15.211Z,1.30
2019-01-28T02:18:45.415Z,1.27
2019-01-28T02:21:16.145Z,1.50
2019-01-28T02:23:46.130Z,1.30
2019-01-28T02:26:16.865Z,1.20
2019-01-28T02:28:46.605Z,1.10
2019-01-28T02:31:16.774Z,1.10
2019-01-28T02:34:06.844Z,1.30
2019-01-28T02:36:35.403Z,1.20
2019-01-28T02:39:06.846Z,0.90
2019-01-28T02:41:36.455Z,1.05
2019-01-28T02:44:06.686Z,1.10
2019-01-28T02:46:36.935Z,1.10
2019-01-28T02:49:06.188Z,1.17
2019-01-28T02:51:36.450Z,1.50
2019-01-28T02:54:06.934Z,1.40
2019-01-28T02:56:36.971Z,0.98
2019-01-28T02:59:06.292Z,1.12
2019-01-28T03:01:43.030Z,1.50
2019-01-28T03:04:11.715Z,1.72
2019-01-28T03:06:41.646Z,1.40
2019-01-28T03:09:11.799Z,1.60
2019-01-28T03:11:43.775Z,1.47
2019-01-28T03:14:12.091Z,1.70
2019-01-28T03:16:42.201Z,1.50
2019-01-28T03:19:11.743Z,1.50
2019-01-28T03:21:42.437Z,1.55
2019-01-28T03:24:13.462Z,1.40
2019-01-28T03:26:43.574Z,1.60
2019-01-28T03:29:13.349Z,1.67
2019-01-28T03:31:42.157Z,1.50
2019-01-28T03:34:11.989Z,1.25
2019-01-28T03:36:42.425Z,1.70
2019-01-28T03:39:11.951Z,1.60
2019-01-28T03:41:42.433Z,1.42
2019-01-28T03:44:12.316Z,1.85
2019-01-28T03:46:42.585Z,1.85
2019-01-28T03:49:12.709Z,1.70
2019-01-28T03:51:42.270Z,2.20
2019-01-28T03:54:11.963Z,1.80
2019-01-28T03:56:42.080Z,1.90
2019-01-28T03:59:11.628Z,2.00
2019-01-28T04:01:41.764Z,1.90
2019-01-28T04:04:13.937Z,1.70
2019-01-28T04:06:42.783Z,1.90
2019-01-28T04:09:13.055Z,2.00
2019-01-28T04:11:44.385Z,2.20
2019-01-28T04:14:13.396Z,1.80
2019-01-28T04:16:43.826Z,1.70
2019-01-28T04:19:13.669Z,1.60
2019-01-28T04:21:44.522Z,1.85
2019-01-28T04:24:16.050Z,1.83
2019-01-28T04:26:45.715Z,1.80
2019-01-28T04:29:15.862Z,1.70
2019-01-28T04:31:48.812Z,1.40
2019-01-28T04:34:18.971Z,1.70
2019-01-28T04:36:49.069Z,1.72
2019-01-28T04:39:19.273Z,1.77
2019-01-28T04:41:49.273Z,1.77
2019-01-28T04:44:19.450Z,1.60
2019-01-28T04:46:49.448Z,1.80
2019-01-28T04:49:19.111Z,1.90
2019-01-28T04:51:48.616Z,1.80
2019-01-28T04:54:18.125Z,1.60
2019-01-28T04:56:46.824Z,1.67
2019-01-28T04:59:16.762Z,1.20
2019-01-28T05:01:46.585Z,1.63
2019-01-28T05:04:16.213Z,1.70
2019-01-28T05:06:46.255Z,1.05
2019-01-28T05:09:15.468Z,1.30
2019-01-28T05:11:45.080Z,1.50
2019-01-28T05:14:14.918Z,1.40
2019-01-28T05:16:44.200Z,1.35
2019-01-28T05:19:13.240Z,1.47
2019-01-28T05:21:41.921Z,1.50
2019-01-28T05:24:10.501Z,1.15
2019-01-28T05:26:38.894Z,1.35
2019-01-28T05:29:07.384Z,1.37
2019-01-28T05:31:35.729Z,1.60
2019-01-28T05:34:04.177Z,1.10
2019-01-28T05:36:32.558Z,0.90
2019-01-28T05:39:00.873Z,1.40
2019-01-28T05:41:29.217Z,1.40
2019-01-28T05:43:58.046Z,1.70
2019-01-28T05:46:26.631Z,1.30
2019-01-28T05:48:54.939Z,1.60
2019-01-28T05:51:23.457Z,2.20
2019-01-28T05:53:52.160Z,1.50
2019-01-28T05:56:20.555Z,2.02
2019-01-28T05:58:49.536Z,2.30
2019-01-28T06:01:18.078Z,1.20
2019-01-28T06:03:46.396Z,1.55
2019-01-28T06:06:14.703Z,1.52
2019-01-28T06:08:43.246Z,1.47
2019-01-28T06:11:11.515Z,1.30
2019-01-28T06:13:39.917Z,1.42
2019-01-28T06:16:08.350Z,1.30
2019-01-28T06:18:36.699Z,0.95
2019-01-28T06:21:05.204Z,1.20
2019-01-28T06:23:34.256Z,1.15
2019-01-28T06:26:02.627Z,1.20
2019-01-28T06:28:31.041Z,1.10
2019-01-28T06:30:59.426Z,1.10
2019-01-28T06:33:27.916Z,1.10
2019-01-28T06:35:56.248Z,1.20
2019-01-28T06:38:24.572Z,1.30
2019-01-28T06:40:53.028Z,1.22
2019-01-28T06:43:21.425Z,1.37
2019-01-28T06:45:49.725Z,1.60
2019-01-28T06:48:18.446Z,1.22
2019-01-28T06:50:46.773Z,1.35
2019-01-28T06:53:15.111Z,1.52
2019-01-28T06:55:43.492Z,1.30
2019-01-28T06:58:12.102Z,1.30
2019-01-28T07:00:40.495Z,1.50
2019-01-28T07:03:08.980Z,1.25
2019-01-28T07:05:37.623Z,1.50
2019-01-28T07:08:06.367Z,1.50
2019-01-28T07:10:34.849Z,1.30
2019-01-28T07:13:03.290Z,1.65
2019-01-28T07:15:31.697Z,1.20
2019-01-28T07:18:00.053Z,1.10
2019-01-28T07:20:31.498Z,1.35
2019-01-28T07:23:00.276Z,1.50
2019-01-28T07:25:28.790Z,1.87
2019-01-28T07:27:57.465Z,1.60
2019-01-28T07:30:33.803Z,1.45
2019-01-28T07:33:02.165Z,1.35
2019-01-28T07:35:30.500Z,1.40
2019-01-28T07:37:58.857Z,1.20
2019-01-28T07:40:29.058Z,1.70
2019-01-28T07:42:57.358Z,1.32
2019-01-28T07:45:30.708Z,1.30
2019-01-28T07:48:03.058Z,1.12
2019-01-28T07:50:29.434Z,1.42
2019-01-28T07:52:57.874Z,1.20
2019-01-28T07:55:26.394Z,1.80
2019-01-28T07:57:54.720Z,1.87
2019-01-28T08:00:25.597Z,1.50
2019-01-28T08:02:54.000Z,1.70
2019-01-28T08:05:22.499Z,1.40
2019-01-28T08:07:50.894Z,1.30
2019-01-28T08:10:20.546Z,1.60
2019-01-28T08:12:49.006Z,1.40
2019-01-28T08:15:26.216Z,1.60
2019-01-28T08:17:54.552Z,1.55
2019-01-28T08:20:23.201Z,1.80
2019-01-28T08:22:51.592Z,1.80
2019-01-28T08:25:21.145Z,1.30
2019-01-28T08:27:50.030Z,1.77
2019-01-28T08:30:28.191Z,1.50
2019-01-28T08:32:56.577Z,1.40
2019-01-28T08:35:25.817Z,1.60
2019-01-28T08:37:54.285Z,1.40
2019-01-28T08:40:23.022Z,1.50
2019-01-28T08:42:51.423Z,1.40
2019-01-28T08:45:19.720Z,1.47
2019-01-28T08:47:48.125Z,1.30
2019-01-28T08:50:21.613Z,1.60
2019-01-28T08:52:50.117Z,1.30
2019-01-28T08:55:20.373Z,1.50
2019-01-28T08:57:49.408Z,1.43
2019-01-28T09:00:23.765Z,1.70
2019-01-28T09:02:53.160Z,1.70
2019-01-28T09:05:22.431Z,1.23
2019-01-28T09:07:51.012Z,1.50
2019-01-28T09:10:25.495Z,1.83
2019-01-28T09:12:53.950Z,1.87
2019-01-28T09:15:23.548Z,1.33
2019-01-28T09:17:51.890Z,1.80
2019-01-28T09:20:25.784Z,1.40
2019-01-28T09:22:54.263Z,1.63
2019-01-28T09:25:23.121Z,1.40
2019-01-28T09:27:51.587Z,1.32
2019-01-28T09:30:31.653Z,1.40
2019-01-28T09:33:00.185Z,1.80
2019-01-28T09:35:28.591Z,1.67
2019-01-28T09:37:57.329Z,1.30
2019-01-28T09:40:31.053Z,1.50
2019-01-28T09:42:59.600Z,1.60
2019-01-28T09:45:33.924Z,1.40
2019-01-28T09:48:02.338Z,1.40
2019-01-28T09:50:30.869Z,1.50
2019-01-28T09:52:59.395Z,2.10
2019-01-28T09:55:27.834Z,2.07
2019-01-28T09:57:56.990Z,1.80
2019-01-28T10:00:31.193Z,1.97
2019-01-28T10:02:59.775Z,1.60
2019-01-28T10:05:28.325Z,1.60
2019-01-28T10:07:56.742Z,1.30
2019-01-28T10:10:25.230Z,1.20
2019-01-28T10:12:53.926Z,1.80
2019-01-28T10:15:28.490Z,1.73
2019-01-28T10:17:55.654Z,1.80
2019-01-28T10:20:29.489Z,1.57
2019-01-28T10:22:57.889Z,1.40
2019-01-28T10:25:26.249Z,2.03
2019-01-28T10:27:54.660Z,1.60
2019-01-28T10:30:34.535Z,1.70
2019-01-28T10:33:03.576Z,1.40
2019-01-28T10:35:32.515Z,1.40
2019-01-28T10:38:01.001Z,1.70
2019-01-28T10:40:31.649Z,1.50
2019-01-28T10:43:00.305Z,1.60
2019-01-28T10:45:28.723Z,1.70
2019-01-28T10:48:00.651Z,1.70
2019-01-28T10:50:28.294Z,1.60
2019-01-28T10:52:56.865Z,1.13
2019-01-28T10:55:26.203Z,2.10
2019-01-28T10:57:54.973Z,1.93
2019-01-28T11:00:26.301Z,1.90
2019-01-28T11:02:55.668Z,1.67
2019-01-28T11:05:24.206Z,2.00
2019-01-28T11:07:52.697Z,1.90
2019-01-28T11:10:30.293Z,2.20
2019-01-28T11:12:58.690Z,1.90
2019-01-28T11:15:30.937Z,2.27
2019-01-28T11:18:02.719Z,2.00
2019-01-28T11:20:31.252Z,1.60
2019-01-28T11:23:00.278Z,1.70
2019-01-28T11:25:32.694Z,1.90
2019-01-28T11:28:01.249Z,2.43
2019-01-28T11:30:43.406Z,1.60
2019-01-28T11:33:11.902Z,2.35
2019-01-28T11:35:41.646Z,2.10
2019-01-28T11:38:10.424Z,1.93
2019-01-28T11:40:38.836Z,1.73
2019-01-28T11:43:07.582Z,1.53
2019-01-28T11:45:45.345Z,1.90
2019-01-28T11:48:14.045Z,1.63
2019-01-28T11:50:42.564Z,2.50
2019-01-28T11:53:11.906Z,1.80
2019-01-28T11:55:40.448Z,1.93
2019-01-28T11:58:08.833Z,1.70
2019-01-28T12:00:56.250Z,1.53
2019-01-28T12:03:24.436Z,1.73
2019-01-28T12:05:52.817Z,2.30
2019-01-28T12:08:21.268Z,1.90
2019-01-28T12:10:49.764Z,2.07
2019-01-28T12:13:18.278Z,1.60
2019-01-28T12:15:47.087Z,1.93
2019-01-28T12:18:18.611Z,2.17
2019-01-28T12:20:53.516Z,1.90
2019-01-28T12:23:17.220Z,1.70
2019-01-28T12:25:45.552Z,1.90
2019-01-28T12:28:14.035Z,1.53
2019-01-28T12:30:42.511Z,2.10
2019-01-28T12:33:12.438Z,1.80
2019-01-28T12:35:41.021Z,1.50
2019-01-28T12:38:09.753Z,2.00
2019-01-28T12:40:38.448Z,1.70
2019-01-28T12:43:07.130Z,1.90
2019-01-28T12:45:35.529Z,1.40
2019-01-28T12:48:04.176Z,1.80
2019-01-28T12:50:32.625Z,1.87
2019-01-28T12:53:01.391Z,1.50
2019-01-28T12:55:29.781Z,1.60
2019-01-28T12:57:58.190Z,1.63
2019-01-28T13:00:31.543Z,1.87
2019-01-28T13:02:59.942Z,1.70
2019-01-28T13:05:28.391Z,1.60
2019-01-28T13:07:56.797Z,1.92
2019-01-28T13:10:26.073Z,2.20
2019-01-28T13:12:54.766Z,2.03
2019-01-28T13:15:31.136Z,2.00
2019-01-28T13:17:59.686Z,1.98
2019-01-28T13:20:28.317Z,1.62
2019-01-28T13:22:56.749Z,1.90
2019-01-28T13:25:27.996Z,1.60
2019-01-28T13:27:56.397Z,1.80
2019-01-28T13:30:27.410Z,1.57
2019-01-28T13:32:56.968Z,1.50
2019-01-28T13:35:25.457Z,2.27
2019-01-28T13:37:53.996Z,1.90
2019-01-28T13:40:22.563Z,1.80
2019-01-28T13:42:50.939Z,1.83
2019-01-28T13:45:20.780Z,2.10
2019-01-28T13:47:50.192Z,1.60
2019-01-28T13:50:20.616Z,2.00
2019-01-28T13:52:49.379Z,1.87
2019-01-28T13:55:18.510Z,1.70
2019-01-28T13:57:46.830Z,1.80
2019-01-28T14:00:18.398Z,1.90
2019-01-28T14:02:46.969Z,2.00
2019-01-28T14:05:15.582Z,1.50
2019-01-28T14:07:44.210Z,1.67
2019-01-28T14:10:15.156Z,2.30
2019-01-28T14:12:43.704Z,1.87
2019-01-28T14:15:17.950Z,2.40
2019-01-28T14:17:46.250Z,2.27
2019-01-28T14:20:17.803Z,2.00
2019-01-28T14:22:48.048Z,2.22
2019-01-28T14:25:16.860Z,2.23
2019-01-28T14:27:49.815Z,1.98
2019-01-28T14:30:40.467Z,1.82
2019-01-28T14:33:11.152Z,2.45
2019-01-28T14:35:40.101Z,2.58
2019-01-28T14:38:09.537Z,1.50
2019-01-28T14:40:39.188Z,1.85
2019-01-28T14:43:07.674Z,2.00
2019-01-28T14:45:36.124Z,2.70
2019-01-28T14:48:05.816Z,2.27
2019-01-28T14:50:38.240Z,1.82
2019-01-28T14:53:06.805Z,2.03
2019-01-28T14:55:35.450Z,2.40
2019-01-28T14:58:04.463Z,2.20
2019-01-28T15:00:38.248Z,2.23
2019-01-28T15:03:06.821Z,1.90
2019-01-28T15:05:35.489Z,2.50
2019-01-28T15:08:04.420Z,1.90
2019-01-28T15:10:32.847Z,1.63
2019-01-28T15:13:01.330Z,1.97
2019-01-28T15:15:35.477Z,2.10
2019-01-28T15:18:04.497Z,1.80
2019-01-28T15:20:32.966Z,1.55
2019-01-28T15:23:01.943Z,2.43
2019-01-28T15:25:30.296Z,2.10
2019-01-28T15:27:58.972Z,2.40
2019-01-28T15:30:29.485Z,2.10
2019-01-28T15:32:58.217Z,2.08
2019-01-28T15:35:26.681Z,2.60
2019-01-28T15:37:55.108Z,1.72
2019-01-28T15:40:26.546Z,2.20
2019-01-28T15:42:55.051Z,2.42
2019-01-28T15:45:26.324Z,1.60
2019-01-28T15:47:54.681Z,2.50
2019-01-28T15:50:23.185Z,2.40
2019-01-28T15:52:51.573Z,1.70
2019-01-28T15:55:29.086Z,1.70
2019-01-28T15:57:59.899Z,1.40
2019-01-28T16:00:30.888Z,1.80
2019-01-28T16:02:59.345Z,1.90
2019-01-28T16:05:27.788Z,1.95
2019-01-28T16:07:56.679Z,1.52
2019-01-28T16:10:25.260Z,2.00
2019-01-28T16:12:53.616Z,2.15
2019-01-28T16:15:31.104Z,2.40
2019-01-28T16:17:59.501Z,2.55
2019-01-28T16:20:28.015Z,2.25
2019-01-28T16:22:56.450Z,2.15
2019-01-28T16:25:24.954Z,2.35
2019-01-28T16:27:53.355Z,2.20
2019-01-28T16:30:29.814Z,1.70
2019-01-28T16:32:58.252Z,1.67
2019-01-28T16:35:26.760Z,1.95
2019-01-28T16:37:55.405Z,1.75
2019-01-28T16:40:28.546Z,2.85
2019-01-28T16:42:57.947Z,1.95
2019-01-28T16:45:26.539Z,1.65
2019-01-28T16:47:55.010Z,1.80
2019-01-28T16:50:27.085Z,1.87
2019-01-28T16:52:55.888Z,1.80
2019-01-28T16:55:25.226Z,1.90
2019-01-28T16:57:54.003Z,2.50
2019-01-28T17:00:33.148Z,1.50
2019-01-28T17:03:01.737Z,1.55
2019-01-28T17:05:30.523Z,1.50
2019-01-28T17:07:58.975Z,2.00
2019-01-28T17:10:30.024Z,1.80
2019-01-28T17:12:58.465Z,2.05
2019-01-28T17:15:26.910Z,2.00
2019-01-28T17:17:55.307Z,1.80
2019-01-28T17:20:26.000Z,1.70
2019-01-28T17:22:54.757Z,1.80
2019-01-28T17:25:31.587Z,1.70
2019-01-28T17:28:00.023Z,1.63
2019-01-28T17:30:36.695Z,1.77
2019-01-28T17:33:06.191Z,2.20
2019-01-28T17:35:34.623Z,2.10
2019-01-28T17:38:04.491Z,3.17
2019-01-28T17:40:33.587Z,3.57
2019-01-28T17:43:02.149Z,2.53
2019-01-28T17:45:31.357Z,2.60
2019-01-28T17:48:00.335Z,2.33
2019-01-28T17:50:28.981Z,2.10
2019-01-28T17:53:00.159Z,2.42
2019-01-28T17:55:28.689Z,2.40
2019-01-28T17:57:57.887Z,1.87
2019-01-28T18:00:29.745Z,2.67
2019-01-28T18:02:58.495Z,2.80
2019-01-28T18:05:27.170Z,4.00
2019-01-28T18:07:55.624Z,3.22
2019-01-28T18:10:24.183Z,4.08
2019-01-28T18:12:52.698Z,2.83
2019-01-28T18:15:23.522Z,3.10
2019-01-28T18:17:51.891Z,2.27
2019-01-28T18:20:20.652Z,3.70
2019-01-28T18:22:49.098Z,2.47
2019-01-28T18:25:20.289Z,3.13
2019-01-28T18:27:48.669Z,2.40
2019-01-28T18:30:24.325Z,2.92
2019-01-28T18:32:52.813Z,2.53
2019-01-28T18:35:21.445Z,3.10
2019-01-28T18:37:49.938Z,3.63
2019-01-28T18:40:18.958Z,2.92
2019-01-28T18:42:47.530Z,3.03
2019-01-28T18:45:20.449Z,2.20
2019-01-28T18:47:49.201Z,2.90
2019-01-28T18:50:20.146Z,4.00
2019-01-28T18:52:48.693Z,4.60
2019-01-28T18:55:18.763Z,3.67
2019-01-28T18:57:49.518Z,4.00
2019-01-28T19:00:26.376Z,4.40
2019-01-28T19:02:55.885Z,3.90
2019-01-28T19:05:35.892Z,4.37
2019-01-28T19:08:06.195Z,3.70
2019-01-28T19:10:39.075Z,4.10
2019-01-28T19:13:09.084Z,3.73
2019-01-28T19:15:39.103Z,3.83
2019-01-28T19:18:12.295Z,4.10
2019-01-28T19:20:42.292Z,3.55
2019-01-28T19:23:11.062Z,3.77
2019-01-28T19:25:39.489Z,4.87
2019-01-28T19:28:07.973Z,5.10
2019-01-28T19:30:36.272Z,3.05
2019-01-28T19:33:05.362Z,5.00
2019-01-28T19:35:33.897Z,5.17
2019-01-28T19:38:02.462Z,6.05
2019-01-28T19:40:30.977Z,5.00
2019-01-28T19:42:59.697Z,5.10
2019-01-28T19:45:28.320Z,5.10
2019-01-28T19:47:56.725Z,4.40
2019-01-28T19:50:25.219Z,4.90
2019-01-28T19:52:53.794Z,2.63
2019-01-28T19:55:22.157Z,4.80
2019-01-28T19:57:50.560Z,4.83
2019-01-28T20:00:21.679Z,5.00
2019-01-28T20:02:50.223Z,4.90
2019-01-28T20:05:18.828Z,4.80
2019-01-28T20:07:47.404Z,4.70
2019-01-28T20:10:15.914Z,4.40
2019-01-28T20:12:44.483Z,4.80
2019-01-28T20:15:41.397Z,5.10
2019-01-28T20:18:09.892Z,5.47
2019-01-28T20:20:38.568Z,5.53
2019-01-28T20:23:07.058Z,5.13
2019-01-28T20:25:37.419Z,5.47
2019-01-28T20:28:05.874Z,4.40
2019-01-28T20:30:34.400Z,5.10
2019-01-28T20:33:02.844Z,3.63
2019-01-28T20:35:31.397Z,5.17
2019-01-28T20:37:59.755Z,4.20
2019-01-28T20:40:28.303Z,4.77
2019-01-28T20:42:56.616Z,4.45
2019-01-28T20:45:26.073Z,4.73
2019-01-28T20:47:55.559Z,3.90
2019-01-28T20:50:46.165Z,4.40
2019-01-28T20:53:17.102Z,4.60
2019-01-28T20:55:47.291Z,2.97
2019-01-28T20:58:15.698Z,5.00
2019-01-28T21:00:45.949Z,4.60
2019-01-28T21:03:14.404Z,5.00
2019-01-28T21:05:45.887Z,3.70
2019-01-28T21:08:14.679Z,4.10
2019-01-28T21:10:43.182Z,3.33
2019-01-28T21:13:13.243Z,4.30
2019-01-28T21:15:44.099Z,4.50
2019-01-28T21:18:14.143Z,5.03
2019-01-28T21:20:43.730Z,3.30
2019-01-28T21:23:13.030Z,3.60
2019-01-28T21:25:42.954Z,3.80
2019-01-28T21:28:11.382Z,4.00
2019-01-28T21:30:41.411Z,4.25
2019-01-28T21:33:12.521Z,4.33
2019-01-28T21:35:45.882Z,3.97
2019-01-28T21:38:25.697Z,3.93
2019-01-28T21:40:55.505Z,3.10
2019-01-28T21:43:25.376Z,4.22
2019-01-28T21:45:54.123Z,5.08
2019-01-28T21:48:22.959Z,4.20
2019-01-28T21:50:51.579Z,4.37
2019-01-28T21:53:22.090Z,4.10
2019-01-28T21:55:50.503Z,4.07
2019-01-28T21:58:19.328Z,4.77
2019-01-28T22:00:48.273Z,4.22
2019-01-28T22:03:18.565Z,3.80
2019-01-28T22:05:46.956Z,4.27
2019-01-28T22:08:16.358Z,4.35
2019-01-28T22:10:46.300Z,4.10
2019-01-28T22:13:14.728Z,4.50
2019-01-28T22:15:44.668Z,4.13
2019-01-28T22:18:13.110Z,5.23
2019-01-28T22:20:44.269Z,5.10
2019-01-28T22:23:13.850Z,4.95
2019-01-28T22:25:45.675Z,4.57
2019-01-28T22:28:16.025Z,5.33
2019-01-28T22:30:45.742Z,5.30
2019-01-28T22:33:15.272Z,5.33
2019-01-28T22:35:43.981Z,4.30
2019-01-28T22:38:12.310Z,5.00
2019-01-28T22:40:41.361Z,5.60
2019-01-28T22:43:10.044Z,6.23
2019-01-28T22:45:39.332Z,6.75
2019-01-28T22:48:08.529Z,6.10
2019-01-28T22:50:38.612Z,6.50
2019-01-28T22:53:07.555Z,4.20
2019-01-28T22:55:39.069Z,5.62
2019-01-28T22:58:08.518Z,5.55
2019-01-28T23:00:51.557Z,5.95
2019-01-28T23:03:21.726Z,4.70
2019-01-28T23:05:50.919Z,6.03
2019-01-28T23:08:20.768Z,5.33
2019-01-28T23:10:50.663Z,5.35
2019-01-28T23:13:21.607Z,5.70
2019-01-28T23:15:55.434Z,6.35
2019-01-28T23:18:24.551Z,5.25
2019-01-28T23:20:53.021Z,5.50
2019-01-28T23:23:23.732Z,5.08
2019-01-28T23:25:53.416Z,4.95
2019-01-28T23:28:21.818Z,4.65
2019-01-28T23:30:50.761Z,5.12
2019-01-28T23:33:21.503Z,5.40
2019-01-28T23:35:50.100Z,4.35
2019-01-28T23:38:20.813Z,5.20
2019-01-28T23:40:50.440Z,5.00
2019-01-28T23:43:21.701Z,5.80
2019-01-28T23:45:50.061Z,5.33
2019-01-28T23:48:21.642Z,5.03
2019-01-28T23:50:51.567Z,5.07
2019-01-28T23:53:21.891Z,5.75
2019-01-28T23:55:51.868Z,4.70
2019-01-28T23:58:21.159Z,5.00
